EW4162 Ringoes NJ US current weather conditions

sailwx.info

Wind from 051 at 3 knots gusting 9

Air temperature 3.3° C
Dewpoint -3.5° C

Last reported at 2020-Jan-28 22:07 UTC.
Time now 2020-Jan-28 22:32 UTC

Location: N 40°27' W 074°51'.
View on Google Maps.

See reports from other nearby stations

  
Tides and Currents Weather Stations Pressure Air Temp Water Temp Dewpoint Dewpoint Depression Visibility Wind Speed Wind Dir Waves Ship Positions
date/time (UTC)wind fromknots sea level pressurealtimeterstation pressurevisibilityair tempwater tempwave heightnotes
2020-Jan-28 22:07 051 3 gusting 9 3.3
2020-Jan-28 22:02 024 6 gusting 13 3.3
2020-Jan-28 21:57 029 5 gusting 13 3.3
2020-Jan-28 21:52 046 3 gusting 9 3.3
2020-Jan-28 21:47 057 4 gusting 10 3.3
2020-Jan-28 21:42 021 4 gusting 11 3.3
2020-Jan-28 21:37 058 3 gusting 12 3.3
2020-Jan-28 21:32 338 3 gusting 12 3.3
2020-Jan-28 21:27 053 3 gusting 11 3.3
2020-Jan-28 21:22 038 4 gusting 11 3.3
2020-Jan-28 21:17 039 4 gusting 11 3.9
2020-Jan-28 21:12 007 2 gusting 8 3.9
2020-Jan-28 21:07 076 1 gusting 6 3.9
2020-Jan-28 21:02 052 2 gusting 6 3.9
2020-Jan-28 20:57 068 2 gusting 6 3.9
2020-Jan-28 20:52 037 2 gusting 7 3.9
2020-Jan-28 20:47 065 2 gusting 7 3.3
2020-Jan-28 20:42 040 1 gusting 6 3.3
2020-Jan-28 20:37 058 2 gusting 6 3.3
2020-Jan-28 20:32 074 2 gusting 6 3.3
2020-Jan-28 20:27 049 3 gusting 10 3.3
2020-Jan-28 20:22 049 3 gusting 10 3.3
2020-Jan-28 20:17 313 2 gusting 9 3.3
2020-Jan-28 20:12 349 3 gusting 9 3.3
2020-Jan-28 20:07 033 2 gusting 7 3.3
2020-Jan-28 20:02 037 2 gusting 6 3.3
2020-Jan-28 19:57 004 3 gusting 8 3.3
2020-Jan-28 19:52 073 3 gusting 8 3.3
2020-Jan-28 19:47 080 2 gusting 7 3.3
2020-Jan-28 19:42 038 3 gusting 11 3.3
2020-Jan-28 19:37 016 3 gusting 11 3.3
2020-Jan-28 19:32 050 2 gusting 6 3.3
2020-Jan-28 19:27 026 2 gusting 6 3.3
2020-Jan-28 19:22 052 2 gusting 8 3.3
2020-Jan-28 19:17 025 2 gusting 8 3.3
2020-Jan-28 19:12 045 2 gusting 7 3.3
2020-Jan-28 19:07 068 2 gusting 6 3.3
2020-Jan-28 19:02 113 2 gusting 8 3.3
2020-Jan-28 18:57 030 3 gusting 8 3.3
2020-Jan-28 18:52 062 3 gusting 9 3.3
2020-Jan-28 18:47 078 3 gusting 10 3.3
2020-Jan-28 18:42 042 2 gusting 10 3.3
2020-Jan-28 18:37 011 2 gusting 7 3.3
2020-Jan-28 18:32 084 4 gusting 13 3.3
2020-Jan-28 18:27 075 6 gusting 13 3.3
2020-Jan-28 18:22 072 3 gusting 11 3.3
2020-Jan-28 18:17 078 1 gusting 9 3.9
2020-Jan-28 18:12 020 2 gusting 9 3.9
2020-Jan-28 18:07 049 3 gusting 9 3.3
2020-Jan-28 18:02 049 3 gusting 7 3.3
2020-Jan-28 17:57 030 2 gusting 7 3.3
2020-Jan-28 17:52 015 2 gusting 12 3.3
2020-Jan-28 17:47 058 4 gusting 12 3.3
2020-Jan-28 17:42 058 3 gusting 9 3.9
2020-Jan-28 17:37 036 2 gusting 9 3.9
2020-Jan-28 17:32 022 2 gusting 7 3.9
2020-Jan-28 17:27 039 2 gusting 11 3.9
2020-Jan-28 17:22 051 3 gusting 11 3.9
2020-Jan-28 17:17 033 2 gusting 8 3.9
2020-Jan-28 17:12 021 1 gusting 6 3.9
2020-Jan-28 17:07 054 3 gusting 10 3.9
2020-Jan-28 17:02 039 4 gusting 11 3.9
2020-Jan-28 16:57 032 4 gusting 11 3.9
2020-Jan-28 16:52 025 3 gusting 8 3.9
2020-Jan-28 16:47 051 3 gusting 8 4.4
2020-Jan-28 16:42 042 3 gusting 12 4.4
2020-Jan-28 16:37 036 3 gusting 12 4.4
2020-Jan-28 16:32 134 3 gusting 9 4.4
2020-Jan-28 16:27 255 3 gusting 12 4.4
2020-Jan-28 16:22 031 4 gusting 12 4.4
2020-Jan-28 16:17 051 4 gusting 13 4.4
2020-Jan-28 16:12 064 5 gusting 14 4.4
2020-Jan-28 16:07 066 4 gusting 14 4.4
2020-Jan-28 16:02 008 5 gusting 11 4.4
2020-Jan-28 15:57 068 6 gusting 15 4.4
2020-Jan-28 15:52 014 5 gusting 15 4.4
2020-Jan-28 15:47 351 5 gusting 14 4.4
2020-Jan-28 15:42 073 6 gusting 15 5.0
2020-Jan-28 15:37 032 6 gusting 15 5.0
2020-Jan-28 15:32 064 6 gusting 13 5.0
2020-Jan-28 15:27 049 6 gusting 13 5.0
2020-Jan-28 15:22 053 5 gusting 13 5.0
2020-Jan-28 15:17 357 4 gusting 13 5.0
2020-Jan-28 15:12 025 4 gusting 15 5.0
2020-Jan-28 15:07 073 6 gusting 15 4.4
2020-Jan-28 15:02 077 6 gusting 15 4.4
2020-Jan-28 14:57 060 5 gusting 15 4.4
2020-Jan-28 14:52 096 4 gusting 10 4.4
2020-Jan-28 14:47 044 4 gusting 10 4.4
2020-Jan-28 14:41 056 4 gusting 8 4.4
2020-Jan-28 14:36 101 4 gusting 13 4.4
2020-Jan-28 14:32 049 3 gusting 13 3.9
2020-Jan-28 14:27 006 4 gusting 13 3.9
2020-Jan-28 14:21 035 5 gusting 13 3.9
2020-Jan-28 14:16 035 4 gusting 12 3.9
2020-Jan-28 14:12 023 4 gusting 12 3.3
2020-Jan-28 14:06 060 5 gusting 12 3.3
2020-Jan-28 14:01 033 4 gusting 11 3.3
2020-Jan-28 13:57 060 5 gusting 13 3.3
2020-Jan-28 13:51 058 5 gusting 13 3.3
2020-Jan-28 13:47 050 3 gusting 9 3.3
2020-Jan-28 13:41 042 3 gusting 10 2.8
2020-Jan-28 13:36 015 3 gusting 10 2.8
2020-Jan-28 13:31 039 3 gusting 10 2.8
2020-Jan-28 13:26 037 2 gusting 7 2.8
2020-Jan-28 13:22 049 2 gusting 11 2.2
2020-Jan-28 13:16 026 2 gusting 11 2.2
2020-Jan-28 13:11 037 2 gusting 7 1.7
2020-Jan-28 13:07 028 2 gusting 7 1.7
2020-Jan-28 13:01 038 0 gusting 7 1.7
2020-Jan-28 12:57 044 0 gusting 3 1.1
2020-Jan-28 12:52 036 0 gusting 4 1.1
2020-Jan-28 12:46 034 1 gusting 5 1.1
2020-Jan-28 12:41 051 0 gusting 5 0.6
2020-Jan-28 12:36 045 0 gusting 3 0.6
2020-Jan-28 12:31 038 0 gusting 2 0.6
2020-Jan-28 12:26 019 0 gusting 3 0.6
2020-Jan-28 12:21 047 0 gusting 3 0.6
2020-Jan-28 12:16 019 0 gusting 3 0.6
2020-Jan-28 12:11 043 0 gusting 3 0.6
2020-Jan-28 12:06 054 0 gusting 3 0.6
2020-Jan-28 12:01 283 0.6
2020-Jan-28 11:56 047 0.6
2020-Jan-28 11:51 337 0 gusting 4 0.6
2020-Jan-28 11:46 046 0 gusting 4 0.6
2020-Jan-28 11:41 056 0 gusting 3 -0.0
2020-Jan-28 11:36 020 -0.0
2020-Jan-28 11:31 332 -0.0
2020-Jan-28 11:26 017 -0.0
2020-Jan-28 11:21 342 -0.0
2020-Jan-28 11:16 330 -0.0
2020-Jan-28 11:11 014 -0.0
2020-Jan-28 11:06 293 0.6
2020-Jan-28 11:01 293 0.6
2020-Jan-28 10:56 338 0.6
2020-Jan-28 10:51 036 0.6
2020-Jan-28 10:46 036 0.6
2020-Jan-28 10:41 035 0 gusting 1 1.1
2020-Jan-28 10:36 033 0 gusting 1 1.1
2020-Jan-28 10:31 027 0 gusting 4 1.1
2020-Jan-28 10:26 064 0 gusting 4 1.1
2020-Jan-28 10:21 065 0 gusting 3 1.1
2020-Jan-28 10:16 036 0 gusting 5 1.1
2020-Jan-28 10:11 051 1 gusting 5 1.7
2020-Jan-28 10:06 027 0 gusting 4 1.7
2020-Jan-28 10:01 001 0 gusting 3 1.7
2020-Jan-28 09:56 048 0 gusting 5 1.7
2020-Jan-28 09:51 039 0 gusting 5 1.7
2020-Jan-28 09:46 060 0 gusting 3 1.7
2020-Jan-28 09:41 357 0 gusting 3 1.7
2020-Jan-28 09:36 034 0 gusting 3 2.2
2020-Jan-28 09:31 051 1 gusting 5 2.2
2020-Jan-28 09:26 021 2 gusting 8 2.2
2020-Jan-28 09:21 025 3 gusting 8 2.2
2020-Jan-28 09:16 063 3 gusting 10 2.2
2020-Jan-28 09:11 054 2 gusting 10 2.2
2020-Jan-28 09:06 075 1 gusting 4 2.2
2020-Jan-28 09:01 028 0 gusting 3 1.7
2020-Jan-28 08:56 067 0 gusting 3 1.7
2020-Jan-28 08:51 046 0 gusting 3 1.7
2020-Jan-28 08:46 044 0 gusting 3 2.2
2020-Jan-28 08:41 041 0 gusting 3 2.2
2020-Jan-28 08:36 056 0 gusting 4 2.2
2020-Jan-28 08:31 059 1 gusting 5 2.2
2020-Jan-28 08:26 050 1 gusting 6 2.2
2020-Jan-28 08:21 010 1 gusting 6 2.2
2020-Jan-28 08:16 345 1 gusting 6 2.2
2020-Jan-28 08:11 043 0 gusting 3 2.2
2020-Jan-28 08:06 025 0 gusting 3 2.2
2020-Jan-28 08:01 344 0 gusting 3 2.2
2020-Jan-28 07:56 039 0 gusting 2 2.2
2020-Jan-28 07:51 044 0 gusting 3 2.2
2020-Jan-28 07:16 328 0 gusting 2 2.2
2020-Jan-28 07:11 029 0 gusting 5 2.8
2020-Jan-28 07:06 034 1 gusting 5 2.8
2020-Jan-28 07:01 078 1 gusting 4 2.8
2020-Jan-28 06:56 023 1 gusting 6 2.8
2020-Jan-28 06:51 326 2 gusting 6 2.8
2020-Jan-28 06:46 352 1 gusting 6 2.8
2020-Jan-28 06:41 063 1 gusting 7 2.8
2020-Jan-28 06:36 046 1 gusting 7 2.8
2020-Jan-28 06:31 008 1 gusting 6 2.8
2020-Jan-28 06:26 020 1 gusting 6 2.8
2020-Jan-28 06:21 048 1 gusting 5 2.8
2020-Jan-28 06:16 020 1 gusting 6 2.8
2020-Jan-28 06:11 068 1 gusting 6 2.8
2020-Jan-28 06:06 059 1 gusting 6 2.8
2020-Jan-28 06:01 053 1 gusting 4 2.8
2020-Jan-28 05:56 042 1 gusting 5 2.8
2020-Jan-28 05:51 035 1 gusting 5 2.8
2020-Jan-28 05:46 037 1 gusting 6 2.8
2020-Jan-28 05:41 040 0 gusting 6 2.8
2020-Jan-28 05:36 030 0 gusting 3 2.8
2020-Jan-28 05:31 044 0 gusting 2 2.8
2020-Jan-28 05:26 039 0 gusting 3 2.8
2020-Jan-28 05:21 332 0 gusting 3 2.8
2020-Jan-28 05:16 040 0 gusting 2 2.8
2020-Jan-28 05:11 045 0 gusting 2 2.8
2020-Jan-28 05:06 060 0 gusting 2 2.8
2020-Jan-28 05:01 032 0 gusting 3 2.8
2020-Jan-28 04:56 047 0 gusting 3 2.8
2020-Jan-28 04:51 043 0 gusting 3 2.8
2020-Jan-28 04:46 013 0 gusting 3 2.8
2020-Jan-28 04:41 018 1 gusting 4 2.8
2020-Jan-28 04:36 026 1 gusting 4 2.8
2020-Jan-28 04:31 072 0 gusting 4 2.8
2020-Jan-28 04:26 039 1 gusting 4 2.8
2020-Jan-28 04:21 047 1 gusting 4 2.8
2020-Jan-28 04:16 035 1 gusting 4 2.8
2020-Jan-28 04:11 041 0 gusting 3 2.8
2020-Jan-28 04:06 030 0 gusting 3 2.8
2020-Jan-28 04:01 060 1 gusting 6 3.3
2020-Jan-28 03:56 028 2 gusting 6 3.3
2020-Jan-28 03:51 018 2 gusting 8 3.3
2020-Jan-28 03:46 064 1 gusting 8 3.3
2020-Jan-28 03:41 074 1 gusting 4 3.3
2020-Jan-28 03:36 349 1 gusting 4 3.3
2020-Jan-28 03:31 048 3 gusting 9 3.3
2020-Jan-28 03:26 070 4 gusting 9 3.9
2020-Jan-28 03:21 046 2 gusting 9 3.9
2020-Jan-28 03:16 330 1 gusting 6 3.9
2020-Jan-28 03:11 038 1 gusting 6 3.9
2020-Jan-28 03:06 302 0 gusting 4 3.9
2020-Jan-28 03:01 018 0 gusting 4 3.9
2020-Jan-28 02:56 3.9
2020-Jan-28 02:51 338 1 gusting 6 3.9
2020-Jan-28 02:46 329 1 gusting 6 3.9
2020-Jan-28 02:41 038 1 gusting 4 3.9
2020-Jan-28 02:36 328 0 gusting 4 3.9
2020-Jan-28 02:31 041 0 gusting 5 3.9
2020-Jan-28 02:26 056 0 gusting 5 3.9
2020-Jan-28 02:21 056 0 gusting 4 3.9
2020-Jan-28 02:16 333 0 gusting 3 3.9
2020-Jan-28 02:11 046 0 gusting 3 3.9
2020-Jan-28 02:06 077 0 gusting 4 3.9
2020-Jan-28 02:01 320 0 gusting 4 3.9
2020-Jan-28 01:56 059 0 gusting 3 3.9
2020-Jan-28 01:51 086 0 gusting 2 3.9
2020-Jan-28 01:46 034 0 gusting 5 3.9
2020-Jan-28 01:41 058 0 gusting 5 3.9
2020-Jan-28 01:36 049 0 gusting 3 3.9
2020-Jan-28 01:31 045 0 gusting 2 3.9
2020-Jan-28 01:26 311 0 gusting 3 3.9
2020-Jan-28 01:21 030 0 gusting 4 3.9
2020-Jan-28 01:16 066 0 gusting 4 3.9
2020-Jan-28 01:11 356 0 gusting 3 3.9
2020-Jan-28 01:06 048 0 gusting 2 3.9
2020-Jan-28 01:01 034 0 gusting 1 3.9
2020-Jan-28 00:56 025 0 gusting 3 3.9
2020-Jan-28 00:51 044 0 gusting 3 3.9
2020-Jan-28 00:46 045 0 gusting 5 3.9
2020-Jan-28 00:41 071 0 gusting 5 3.9
2020-Jan-28 00:36 359 0 gusting 3 3.9
2020-Jan-28 00:31 006 0 gusting 3 3.9
2020-Jan-28 00:26 343 0 gusting 2 3.9
2020-Jan-28 00:21 041 0 gusting 1 3.9
2020-Jan-28 00:16 060 0 gusting 3 3.9
2020-Jan-28 00:11 018 0 gusting 3 3.9
2020-Jan-28 00:06 027 0 gusting 3 3.9
2020-Jan-28 00:01 304 0 gusting 2 3.9
2020-Jan-27 23:56 312 3.9
2020-Jan-27 23:51 325 3.9
2020-Jan-27 23:46 347 0 gusting 2 3.9
2020-Jan-27 23:41 316 0 gusting 3 3.9
2020-Jan-27 23:36 319 1 gusting 4 4.4
2020-Jan-27 23:31 059 1 gusting 4 3.9
2020-Jan-27 23:26 048 1 gusting 4 4.4
2020-Jan-27 23:21 065 1 gusting 4 4.4
2020-Jan-27 23:16 041 1 gusting 5 4.4
2020-Jan-27 23:11 044 1 gusting 5 4.4
2020-Jan-27 23:06 008 1 gusting 6 4.4
2020-Jan-27 23:01 046 1 gusting 6 4.4
2020-Jan-27 22:56 323 1 gusting 4 4.4
2020-Jan-27 22:51 040 1 gusting 4 4.4
2020-Jan-27 22:46 039 0 gusting 3 5.0
2020-Jan-27 22:41 041 0 gusting 6 5.0
2020-Jan-27 22:36 053 0 gusting 6 5.0
2020-Jan-27 22:31 305 0 gusting 4 5.0
2020-Jan-27 22:26 046 1 gusting 4 5.0
2020-Jan-27 22:21 020 1 gusting 6 5.0
2020-Jan-27 22:16 071 2 gusting 7 5.0
2020-Jan-27 22:11 037 2 gusting 7 5.0
2020-Jan-27 22:06 037 2 gusting 7 5.6
2020-Jan-27 22:01 034 2 gusting 7 5.6
2020-Jan-27 21:56 5.6
2020-Jan-27 21:51 069 3 gusting 11 5.6
2020-Jan-27 21:46 037 4 gusting 13 5.6
2020-Jan-27 21:41 025 4 gusting 13 5.6
2020-Jan-27 21:36 034 3 gusting 12 5.6
2020-Jan-27 21:31 343 2 gusting 9 5.6
2020-Jan-27 21:26 045 3 gusting 9 5.6
2020-Jan-27 21:21 062 2 gusting 7 5.6
2020-Jan-27 21:16 026 2 gusting 7 5.6
2020-Jan-27 21:11 075 2 gusting 7 6.1
2020-Jan-27 21:06 049 1 gusting 5 6.1
2020-Jan-27 21:01 054 1 gusting 6 6.1
2020-Jan-27 20:56 039 2 gusting 8 6.1
2020-Jan-27 20:51 047 1 gusting 8 6.1
2020-Jan-27 20:46 032 1 gusting 6 6.1
2020-Jan-27 20:41 053 1 gusting 5 6.1
2020-Jan-27 20:36 043 1 gusting 5 6.1
2020-Jan-27 20:31 046 2 gusting 7 6.1
2020-Jan-27 20:26 020 2 gusting 7 6.1
2020-Jan-27 20:21 040 3 gusting 8 6.1
2020-Jan-27 20:16 018 4 gusting 10 6.1
2020-Jan-27 20:11 056 5 gusting 10 6.1
2020-Jan-27 20:06 019 4 gusting 9 6.1
2020-Jan-27 20:01 039 3 gusting 8 6.1
2020-Jan-27 19:56 041 2 gusting 7 6.1
2020-Jan-27 19:51 042 2 gusting 6 6.1
2020-Jan-27 19:46 057 1 gusting 6 5.6
2020-Jan-27 19:41 044 1 gusting 5 5.6
2020-Jan-27 19:36 077 1 gusting 5 5.6
2020-Jan-27 19:30 044 2 gusting 7 5.6
2020-Jan-27 19:25 305 1 gusting 7 5.6
2020-Jan-27 19:20 089 1 gusting 5 5.6
2020-Jan-27 19:15 018 2 gusting 6 5.6
2020-Jan-27 19:10 046 2 gusting 6 5.6
2020-Jan-27 19:05 067 2 gusting 6 5.6
2020-Jan-27 19:00 030 2 gusting 6 5.6
2020-Jan-27 18:55 049 2 gusting 6 5.6
2020-Jan-27 18:50 347 2 gusting 7 5.6
2020-Jan-27 18:45 034 1 gusting 7 5.6
2020-Jan-27 18:40 046 1 gusting 6 5.6
2020-Jan-27 18:36 053 1 gusting 5 5.6
2020-Jan-27 18:30 056 2 gusting 9 5.6
2020-Jan-27 18:25 301 3 gusting 9 5.6
2020-Jan-27 18:20 070 2 gusting 10 5.6
2020-Jan-27 18:15 066 2 gusting 10 5.6
2020-Jan-27 18:10 051 1 gusting 7 5.6
2020-Jan-27 18:05 048 2 gusting 7 5.6
2020-Jan-27 18:00 315 2 gusting 6 5.6
2020-Jan-27 17:55 059 2 gusting 8 5.6
2020-Jan-27 17:50 297 2 gusting 8 5.6
2020-Jan-27 17:45 301 1 gusting 6 5.6
2020-Jan-27 17:40 310 1 gusting 6 5.6
2020-Jan-27 17:35 311 1 gusting 6 5.6
2020-Jan-27 17:30 329 2 gusting 6 5.6
2020-Jan-27 17:25 086 1 gusting 6 5.6
2020-Jan-27 17:20 051 1 gusting 6 5.6
2020-Jan-27 17:15 342 1 gusting 6 5.6
2020-Jan-27 17:10 052 1 gusting 7 5.0
2020-Jan-27 17:05 036 1 gusting 7 5.0
2020-Jan-27 17:00 326 1 gusting 6 5.0
2020-Jan-27 16:55 312 1 gusting 6 5.0
2020-Jan-27 16:50 037 1 gusting 6 5.0
2020-Jan-27 16:45 038 0 gusting 3 4.4
2020-Jan-27 16:40 265 0 gusting 4 4.4
2020-Jan-27 16:35 074 1 gusting 4 4.4
2020-Jan-27 16:30 023 1 gusting 6 4.4
2020-Jan-27 16:25 287 1 gusting 6 4.4
2020-Jan-27 16:20 330 1 gusting 4 5.0
2020-Jan-27 16:15 305 2 gusting 6 5.0
2020-Jan-27 16:10 344 2 gusting 6 5.0
2020-Jan-27 16:05 020 2 gusting 8 5.0
2020-Jan-27 16:00 285 2 gusting 8 5.0
2020-Jan-27 15:55 326 2 gusting 10 5.0
2020-Jan-27 15:50 280 3 gusting 10 5.0
2020-Jan-27 15:45 313 2 gusting 7 5.0
2020-Jan-27 15:40 306 1 gusting 7 4.4
2020-Jan-27 15:35 315 3 gusting 8 4.4
2020-Jan-27 15:30 291 3 gusting 8 4.4
2020-Jan-27 15:25 298 4 gusting 9 4.4
2020-Jan-27 15:20 311 5 gusting 9 3.9
2020-Jan-27 15:15 283 4 gusting 9 3.9
2020-Jan-27 15:10 288 3 gusting 9 3.9
2020-Jan-27 15:05 340 3 gusting 8 3.9
2020-Jan-27 15:00 292 3 gusting 8 3.3
2020-Jan-27 14:55 281 2 gusting 7 3.3
2020-Jan-27 14:50 323 4 gusting 9 3.3
2020-Jan-27 14:45 293 4 gusting 9 3.3
2020-Jan-27 14:40 278 4 gusting 9 3.3
2020-Jan-27 14:35 333 5 gusting 9 2.8
2020-Jan-27 14:30 302 3 gusting 8 2.8
2020-Jan-27 14:25 286 2 gusting 6 2.8
2020-Jan-27 14:20 299 3 gusting 6 2.8
2020-Jan-27 14:15 325 2 gusting 6 2.8
2020-Jan-27 14:10 298 1 gusting 6 2.8
2020-Jan-27 14:05 323 1 gusting 5 2.8
2020-Jan-27 14:00 307 1 gusting 6 2.8
2020-Jan-27 13:55 326 1 gusting 6 2.2
2020-Jan-27 13:50 338 1 gusting 6 2.2
2020-Jan-27 13:45 325 3 gusting 6 2.2
2020-Jan-27 13:40 275 4 gusting 7 2.2
2020-Jan-27 13:35 288 4 gusting 8 2.2
2020-Jan-27 13:30 316 4 gusting 8 2.2
2020-Jan-27 13:25 265 4 gusting 7 2.2
2020-Jan-27 13:20 304 2 gusting 6 2.2
2020-Jan-27 13:15 299 3 gusting 6 1.7
2020-Jan-27 13:10 327 4 gusting 8 1.7
2020-Jan-27 13:05 274 4 gusting 8 1.7
2020-Jan-27 13:00 301 3 gusting 7 1.7
2020-Jan-27 12:55 306 3 gusting 6 1.7
2020-Jan-27 12:50 297 3 gusting 6 1.7
2020-Jan-27 12:45 299 3 gusting 6 1.7
2020-Jan-27 12:40 304 3 gusting 6 1.7
2020-Jan-27 12:35 288 3 gusting 6 1.7
2020-Jan-27 12:30 302 3 gusting 6 1.7
2020-Jan-27 12:25 276 3 gusting 6 1.7
2020-Jan-27 12:20 281 3 gusting 4 1.7
2020-Jan-27 12:15 318 3 gusting 5 1.7
2020-Jan-27 12:10 291 3 gusting 5 1.7
2020-Jan-27 12:05 308 3 gusting 6 1.7
2020-Jan-27 12:00 304 3 gusting 6 1.7
2020-Jan-27 11:55 295 3 gusting 6 1.7
2020-Jan-27 11:50 293 3 gusting 5 1.7
2020-Jan-27 11:45 306 3 gusting 5 1.7
2020-Jan-27 11:40 293 3 gusting 5 1.7
2020-Jan-27 11:35 321 2 gusting 5 1.7
2020-Jan-27 11:30 293 2 gusting 5 1.1
2020-Jan-27 11:25 287 2 gusting 5 1.1
2020-Jan-27 11:20 304 2 gusting 4 1.1
2020-Jan-27 11:15 300 2 gusting 4 1.1
2020-Jan-27 11:10 283 1 gusting 4 1.1
2020-Jan-27 11:05 295 1 gusting 2 1.1
2020-Jan-27 11:00 288 1 gusting 4 1.1
2020-Jan-27 10:55 331 1 gusting 4 1.1
2020-Jan-27 10:50 296 1 gusting 3 1.1
2020-Jan-27 10:45 286 1 gusting 4 1.1
2020-Jan-27 10:40 323 0 gusting 4 1.1
2020-Jan-27 10:35 290 1 gusting 4 1.1
2020-Jan-27 10:30 302 1 gusting 6 1.1
2020-Jan-27 10:25 281 1 gusting 6 1.1
2020-Jan-27 10:20 278 1 gusting 5 1.1
2020-Jan-27 10:15 309 1 gusting 6 1.1
2020-Jan-27 10:10 328 1 gusting 6 1.1
2020-Jan-27 10:05 303 2 gusting 5 1.1
2020-Jan-27 10:00 304 1 gusting 5 1.1
2020-Jan-27 09:55 315 1 gusting 5 1.1
2020-Jan-27 09:50 278 1 gusting 6 1.1
2020-Jan-27 09:45 307 2 gusting 6 1.1
2020-Jan-27 09:40 279 3 gusting 6 1.1
2020-Jan-27 09:35 289 3 gusting 8 1.1
2020-Jan-27 09:30 280 2 gusting 8 1.1
2020-Jan-27 09:25 288 1 gusting 6 1.1
2020-Jan-27 09:20 287 1 gusting 6 1.1
2020-Jan-27 09:15 332 1 gusting 4 1.1
2020-Jan-27 09:10 310 1 gusting 4 1.1
2020-Jan-27 09:05 293 1 gusting 4 1.1
2020-Jan-27 09:00 271 1 gusting 4 1.1
2020-Jan-27 08:55 296 1 gusting 4 1.1
2020-Jan-27 08:50 291 2 gusting 4 1.1
2020-Jan-27 08:45 295 2 gusting 4 1.1
2020-Jan-27 08:40 297 2 gusting 4 1.1
2020-Jan-27 08:35 282 1 gusting 4 0.6
2020-Jan-27 08:30 298 1 gusting 3 0.6
2020-Jan-27 08:25 290 1 gusting 2 0.6
2020-Jan-27 08:20 289 1 gusting 2 1.1
2020-Jan-27 08:15 296 0 gusting 2 1.1
2020-Jan-27 08:10 303 0 gusting 4 1.1
2020-Jan-27 08:05 289 0 gusting 4 1.1
2020-Jan-27 08:00 293 0 gusting 2 1.1
2020-Jan-27 07:55 332 1 gusting 5 1.1
2020-Jan-27 07:50 293 2 gusting 5 1.1
2020-Jan-27 07:45 304 2 gusting 5 1.1
2020-Jan-27 07:40 303 2 gusting 5 1.1
2020-Jan-27 07:35 292 2 gusting 6 1.1
2020-Jan-27 07:30 295 1 gusting 6 0.6
2020-Jan-27 07:25 305 1 gusting 3 0.6
2020-Jan-27 07:20 281 1 gusting 3 0.6
2020-Jan-27 07:10 307 1 gusting 2 0.6
2020-Jan-27 07:05 305 1 gusting 4 1.1
2020-Jan-27 07:00 304 1 gusting 4 1.1
2020-Jan-27 06:50 311 0 gusting 4 1.1
2020-Jan-27 06:45 044 0 gusting 3 1.1
2020-Jan-27 06:35 310 1 gusting 3 1.1
2020-Jan-27 06:25 295 1 gusting 5 1.1
2020-Jan-27 06:20 295 1 gusting 5 1.1
2020-Jan-27 06:15 298 1 gusting 4 1.1
2020-Jan-27 06:10 276 0 gusting 4 1.1
2020-Jan-27 06:05 297 1 gusting 4 1.1
2020-Jan-27 06:00 297 1 gusting 4 1.1
2020-Jan-27 05:55 307 1 gusting 3 1.1
2020-Jan-27 05:50 317 2 gusting 5 1.1
2020-Jan-27 05:45 288 2 gusting 5 1.1
2020-Jan-27 05:40 294 0 gusting 3 1.1
2020-Jan-27 05:35 290 0.6
2020-Jan-27 05:30 328 1.1
2020-Jan-27 05:25 332 1.1
2020-Jan-27 05:20 354 1.1
2020-Jan-27 05:15 290 1.1
2020-Jan-27 05:10 331 0 gusting 3 1.1
2020-Jan-27 05:05 312 0 gusting 3 1.1
2020-Jan-27 05:00 262 0 gusting 1 1.1
2020-Jan-27 04:55 303 0 gusting 3 1.1
2020-Jan-27 04:50 288 0 gusting 3 1.1
2020-Jan-27 04:45 332 1.1
2020-Jan-27 04:40 288 0 gusting 5 1.7
2020-Jan-27 04:35 329 0 gusting 5 1.7
2020-Jan-27 04:30 354 0 gusting 4 1.1
2020-Jan-27 04:25 355 0 gusting 4 1.1
2020-Jan-27 04:20 297 0 gusting 2 1.1
2020-Jan-27 04:15 307 1.1
2020-Jan-27 04:10 333 1.1
2020-Jan-27 04:05 306 1.7
2020-Jan-27 04:00 318 0 gusting 1 1.7
2020-Jan-27 03:55 316 0 gusting 3 1.7
2020-Jan-27 03:50 318 0 gusting 3 1.1
2020-Jan-27 03:45 333 0 gusting 5 1.1
2020-Jan-27 03:40 285 0 gusting 5 1.1
2020-Jan-27 03:35 293 0 gusting 2 0.6
2020-Jan-27 03:30 295 0 gusting 2 0.6
2020-Jan-27 03:25 283 0 gusting 1 0.6
2020-Jan-27 03:20 285 0 gusting 2 1.1
2020-Jan-27 03:15 304 0 gusting 2 1.1
2020-Jan-27 03:10 293 1.1
2020-Jan-27 03:05 262 1.1
2020-Jan-27 03:00 262 1.1
2020-Jan-27 02:55 262 1.1
2020-Jan-27 02:50 285 1.1
2020-Jan-27 02:45 286 1.1
2020-Jan-27 02:40 328 1.1
2020-Jan-27 02:35 218 1.1
2020-Jan-27 02:30 218 1.7
2020-Jan-27 02:25 218 2.2
2020-Jan-27 02:20 224 2.2
2020-Jan-27 02:15 283 0 gusting 2 2.2
2020-Jan-27 02:10 261 0 gusting 2 2.8
2020-Jan-27 02:05 290 2.8
2020-Jan-27 02:00 297 0 gusting 5 2.8
2020-Jan-27 01:55 335 1 gusting 6 2.8
2020-Jan-27 01:50 148 0 gusting 6 2.2
2020-Jan-27 01:45 037 2.2
2020-Jan-27 01:40 310 0 gusting 1 2.2
2020-Jan-27 01:35 338 0 gusting 1 2.2
2020-Jan-27 01:30 281 0 gusting 2 2.8
2020-Jan-27 01:25 311 2.8
2020-Jan-27 01:20 279 0 gusting 1 2.8
2020-Jan-27 01:15 316 0 gusting 3 2.8
2020-Jan-27 01:10 313 0 gusting 3 2.8
2020-Jan-27 01:05 319 0 gusting 3 2.8
2020-Jan-27 01:00 290 0 gusting 5 2.8
2020-Jan-27 00:55 274 0 gusting 5 2.8
2020-Jan-27 00:49 278 0 gusting 2 2.8
2020-Jan-27 00:45 351 0 gusting 2 2.8
2020-Jan-27 00:40 321 2.8
2020-Jan-27 00:35 318 2.8
2020-Jan-27 00:30 319 2.8
2020-Jan-27 00:25 277 3.3
2020-Jan-27 00:20 051 0 gusting 4 3.3
2020-Jan-27 00:14 043 0 gusting 4 3.3
2020-Jan-27 00:09 044 1 gusting 5 3.3
2020-Jan-27 00:04 042 0 gusting 5 3.3
2020-Jan-26 23:59 263 0 gusting 3 3.3
2020-Jan-26 23:54 056 1 gusting 6 3.9
2020-Jan-26 23:50 027 0 gusting 6 3.9
2020-Jan-26 23:44 074 0 gusting 4 3.9
2020-Jan-26 23:39 048 0 gusting 4 3.9
2020-Jan-26 23:34 051 1 gusting 6 4.4
2020-Jan-26 23:29 047 2 gusting 9 4.4
2020-Jan-26 23:24 312 2 gusting 9 4.4
2020-Jan-26 23:19 033 1 gusting 9 4.4
2020-Jan-26 23:14 045 1 gusting 6 4.4
2020-Jan-26 23:09 063 2 gusting 7 5.0
2020-Jan-26 23:04 036 2 gusting 7 5.0
2020-Jan-26 22:59 053 2 gusting 7 5.0
2020-Jan-26 22:54 056 3 gusting 8 5.0
2020-Jan-26 22:49 031 3 gusting 11 5.0
2020-Jan-26 22:44 040 2 gusting 11 5.0
2020-Jan-26 22:39 053 1 gusting 6 5.0
2020-Jan-26 22:34 015 1 gusting 7 5.0
2020-Jan-26 22:29 056 1 gusting 7 5.0
2020-Jan-26 22:24 356 1 gusting 7 5.6
2020-Jan-26 22:19 304 0 gusting 7 5.6
2020-Jan-26 22:14 309 0 gusting 5 5.6
2020-Jan-26 22:09 347 1 gusting 5 5.6
2020-Jan-26 22:04 004 1 gusting 6 5.6